sensor_id;sensor_type;location;lat;lon;timestamp;temperature;humidity
35043;DHT22;21230;51.170;17.024;2022-12-18T00:03:42;-4.90;99.90
35043;DHT22;21230;51.170;17.024;2022-12-18T00:06:11;-4.90;99.90
35043;DHT22;21230;51.170;17.024;2022-12-18T00:08:42;-4.90;99.90
35043;DHT22;21230;51.170;17.024;2022-12-18T00:11:16;-4.90;99.90
35043;DHT22;21230;51.170;17.024;2022-12-18T00:13:45;-4.90;99.90
35043;DHT22;21230;51.170;17.024;2022-12-18T00:16:16;-4.90;99.90
35043;DHT22;21230;51.170;17.024;2022-12-18T00:18:53;-4.90;99.90
35043;DHT22;21230;51.170;17.024;2022-12-18T00:21:19;-4.80;99.90
35043;DHT22;21230;51.170;17.024;2022-12-18T00:23:47;-4.80;99.90
35043;DHT22;21230;51.170;17.024;2022-12-18T00:26:28;-4.70;99.90
35043;DHT22;21230;51.170;17.024;2022-12-18T00:28:55;-4.70;99.90
35043;DHT22;21230;51.170;17.024;2022-12-18T00:31:25;-4.60;99.90
35043;DHT22;21230;51.170;17.024;2022-12-18T00:33:52;-4.60;99.90
35043;DHT22;21230;51.170;17.024;2022-12-18T00:36:21;-4.60;99.90
35043;DHT22;21230;51.170;17.024;2022-12-18T00:38:47;-4.60;99.90
35043;DHT22;21230;51.170;17.024;2022-12-18T00:41:16;-4.70;99.90
35043;DHT22;21230;51.170;17.024;2022-12-18T00:44:04;-4.60;99.90
35043;DHT22;21230;51.170;17.024;2022-12-18T00:46:30;-4.70;99.90
35043;DHT22;21230;51.170;17.024;2022-12-18T00:48:57;-4.60;99.90
35043;DHT22;21230;51.170;17.024;2022-12-18T00:51:25;-4.60;99.90
35043;DHT22;21230;51.170;17.024;2022-12-18T00:53:53;-4.60;99.90
35043;DHT22;21230;51.170;17.024;2022-12-18T00:56:23;-4.60;99.90
35043;DHT22;21230;51.170;17.024;2022-12-18T00:58:53;-4.60;99.90
35043;DHT22;21230;51.170;17.024;2022-12-18T01:01:21;-4.60;99.90
35043;DHT22;21230;51.170;17.024;2022-12-18T01:03:50;-4.60;99.90
35043;DHT22;21230;51.170;17.024;2022-12-18T01:06:17;-4.60;99.90
35043;DHT22;21230;51.170;17.024;2022-12-18T01:08:45;-4.60;99.90
35043;DHT22;21230;51.170;17.024;2022-12-18T01:11:19;-4.60;99.90
35043;DHT22;21230;51.170;17.024;2022-12-18T01:13:59;-4.50;99.90
35043;DHT22;21230;51.170;17.024;2022-12-18T01:16:27;-4.50;99.90
35043;DHT22;21230;51.170;17.024;2022-12-18T01:19:03;-4.50;99.90
35043;DHT22;21230;51.170;17.024;2022-12-18T01:21:32;-4.50;99.90
35043;DHT22;21230;51.170;17.024;2022-12-18T01:24:04;-4.50;99.90
35043;DHT22;21230;51.170;17.024;2022-12-18T01:26:31;-4.40;99.90
35043;DHT22;21230;51.170;17.024;2022-12-18T01:28:59;-4.40;99.90
35043;DHT22;21230;51.170;17.024;2022-12-18T01:31:32;-4.30;99.90
35043;DHT22;21230;51.170;17.024;2022-12-18T01:34:28;-4.20;99.90
35043;DHT22;21230;51.170;17.024;2022-12-18T01:36:55;-4.30;99.90
35043;DHT22;21230;51.170;17.024;2022-12-18T01:39:32;-4.30;99.90
35043;DHT22;21230;51.170;17.024;2022-12-18T01:42:00;-4.30;99.90
35043;DHT22;21230;51.170;17.024;2022-12-18T01:47:52;-4.30;99.90
35043;DHT22;21230;51.170;17.024;2022-12-18T01:53:19;-4.30;99.90
35043;DHT22;21230;51.170;17.024;2022-12-18T01:55:52;-4.30;99.90
35043;DHT22;21230;51.170;17.024;2022-12-18T01:59:03;-4.30;99.90
35043;DHT22;21230;51.170;17.024;2022-12-18T02:01:31;-4.20;99.90
35043;DHT22;21230;51.170;17.024;2022-12-18T02:04:26;-4.10;99.90
35043;DHT22;21230;51.170;17.024;2022-12-18T02:07:33;-4.10;99.90
35043;DHT22;21230;51.170;17.024;2022-12-18T02:10:27;-4.10;99.90
35043;DHT22;21230;51.170;17.024;2022-12-18T02:19:54;-4.30;99.90
35043;DHT22;21230;51.170;17.024;2022-12-18T02:28:16;-4.30;99.90
35043;DHT22;21230;51.170;17.024;2022-12-18T02:30:52;-4.30;99.90
35043;DHT22;21230;51.170;17.024;2022-12-18T02:33:27;-4.30;99.90
35043;DHT22;21230;51.170;17.024;2022-12-18T02:35:59;-4.30;99.90
35043;DHT22;21230;51.170;17.024;2022-12-18T02:38:31;-4.20;99.90
35043;DHT22;21230;51.170;17.024;2022-12-18T02:41:03;-4.10;99.90
35043;DHT22;21230;51.170;17.024;2022-12-18T02:43:40;-4.10;99.90
35043;DHT22;21230;51.170;17.024;2022-12-18T02:49:01;-4.00;99.90
35043;DHT22;21230;51.170;17.024;2022-12-18T02:51:53;-4.10;99.90
35043;DHT22;21230;51.170;17.024;2022-12-18T02:54:33;-4.10;99.90
35043;DHT22;21230;51.170;17.024;2022-12-18T03:00:04;-4.00;99.90
35043;DHT22;21230;51.170;17.024;2022-12-18T03:05:15;-4.10;99.90
35043;DHT22;21230;51.170;17.024;2022-12-18T03:08:07;-4.10;99.90
35043;DHT22;21230;51.170;17.024;2022-12-18T03:10:42;-4.20;99.90
35043;DHT22;21230;51.170;17.024;2022-12-18T03:13:28;-4.30;99.90
35043;DHT22;21230;51.170;17.024;2022-12-18T03:15:57;-4.20;99.90
35043;DHT22;21230;51.170;17.024;2022-12-18T03:18:46;-4.20;99.90
35043;DHT22;21230;51.170;17.024;2022-12-18T03:21:17;-4.20;99.90
35043;DHT22;21230;51.170;17.024;2022-12-18T03:23:50;-4.20;99.90
35043;DHT22;21230;51.170;17.024;2022-12-18T03:26:25;-4.20;99.90
35043;DHT22;21230;51.170;17.024;2022-12-18T03:29:02;-4.10;99.90
35043;DHT22;21230;51.170;17.024;2022-12-18T03:31:40;-4.10;99.90
35043;DHT22;21230;51.170;17.024;2022-12-18T03:34:13;-4.10;99.90
35043;DHT22;21230;51.170;17.024;2022-12-18T03:36:40;-4.00;99.90
35043;DHT22;21230;51.170;17.024;2022-12-18T03:39:07;-4.00;99.90
35043;DHT22;21230;51.170;17.024;2022-12-18T03:41:49;-4.00;99.90
35043;DHT22;21230;51.170;17.024;2022-12-18T03:52:28;-4.00;99.90
35043;DHT22;21230;51.170;17.024;2022-12-18T03:54:57;-3.90;99.90
35043;DHT22;21230;51.170;17.024;2022-12-18T03:57:26;-3.90;99.90
35043;DHT22;21230;51.170;17.024;2022-12-18T04:00:06;-3.80;99.90
35043;DHT22;21230;51.170;17.024;2022-12-18T04:02:33;-3.80;99.90
35043;DHT22;21230;51.170;17.024;2022-12-18T04:05:02;-3.80;99.90
35043;DHT22;21230;51.170;17.024;2022-12-18T04:07:29;-3.80;99.90
35043;DHT22;21230;51.170;17.024;2022-12-18T04:09:59;-3.90;99.90
35043;DHT22;21230;51.170;17.024;2022-12-18T04:12:29;-3.80;99.90
35043;DHT22;21230;51.170;17.024;2022-12-18T04:14:55;-3.80;99.90
35043;DHT22;21230;51.170;17.024;2022-12-18T04:17:21;-3.90;99.90
35043;DHT22;21230;51.170;17.024;2022-12-18T04:19:49;-4.00;99.90
35043;DHT22;21230;51.170;17.024;2022-12-18T04:22:16;-4.00;99.90
35043;DHT22;21230;51.170;17.024;2022-12-18T04:24:42;-3.90;99.90
35043;DHT22;21230;51.170;17.024;2022-12-18T04:27:10;-4.00;99.90
35043;DHT22;21230;51.170;17.024;2022-12-18T04:29:37;-3.90;99.90
35043;DHT22;21230;51.170;17.024;2022-12-18T04:32:03;-3.80;99.90
35043;DHT22;21230;51.170;17.024;2022-12-18T04:34:30;-3.80;99.90
35043;DHT22;21230;51.170;17.024;2022-12-18T04:36:56;-3.80;99.90
35043;DHT22;21230;51.170;17.024;2022-12-18T04:39:24;-3.80;99.90
35043;DHT22;21230;51.170;17.024;2022-12-18T04:41:50;-3.80;99.90
35043;DHT22;21230;51.170;17.024;2022-12-18T04:44:15;-3.80;99.90
35043;DHT22;21230;51.170;17.024;2022-12-18T04:46:42;-3.80;99.90
35043;DHT22;21230;51.170;17.024;2022-12-18T04:49:09;-3.70;99.90
35043;DHT22;21230;51.170;17.024;2022-12-18T04:51:37;-3.70;99.90
35043;DHT22;21230;51.170;17.024;2022-12-18T04:54:03;-3.70;99.90
35043;DHT22;21230;51.170;17.024;2022-12-18T04:56:34;-3.50;99.90
35043;DHT22;21230;51.170;17.024;2022-12-18T04:59:00;-3.40;99.90
35043;DHT22;21230;51.170;17.024;2022-12-18T05:01:25;-3.50;99.90
35043;DHT22;21230;51.170;17.024;2022-12-18T05:03:53;-3.50;99.90
35043;DHT22;21230;51.170;17.024;2022-12-18T05:06:19;-3.50;99.90
35043;DHT22;21230;51.170;17.024;2022-12-18T05:08:46;-3.50;99.90
35043;DHT22;21230;51.170;17.024;2022-12-18T05:11:14;-3.60;99.90
35043;DHT22;21230;51.170;17.024;2022-12-18T05:13:46;-3.70;99.90
35043;DHT22;21230;51.170;17.024;2022-12-18T05:16:13;-3.70;99.90
35043;DHT22;21230;51.170;17.024;2022-12-18T05:18:40;-3.70;99.90
35043;DHT22;21230;51.170;17.024;2022-12-18T05:21:06;-3.70;99.90
35043;DHT22;21230;51.170;17.024;2022-12-18T05:23:32;-3.80;99.90
35043;DHT22;21230;51.170;17.024;2022-12-18T05:26:07;-3.80;99.90
35043;DHT22;21230;51.170;17.024;2022-12-18T05:28:35;-3.80;99.90
35043;DHT22;21230;51.170;17.024;2022-12-18T05:31:04;-3.80;99.90
35043;DHT22;21230;51.170;17.024;2022-12-18T05:33:35;-3.90;99.90
35043;DHT22;21230;51.170;17.024;2022-12-18T05:36:05;-3.90;99.90
35043;DHT22;21230;51.170;17.024;2022-12-18T05:38:34;-4.00;99.90
35043;DHT22;21230;51.170;17.024;2022-12-18T05:41:01;-3.90;99.90
35043;DHT22;21230;51.170;17.024;2022-12-18T05:43:29;-3.90;99.90
35043;DHT22;21230;51.170;17.024;2022-12-18T05:45:55;-3.90;99.90
35043;DHT22;21230;51.170;17.024;2022-12-18T05:48:22;-3.90;99.90
35043;DHT22;21230;51.170;17.024;2022-12-18T05:50:49;-3.80;99.90
35043;DHT22;21230;51.170;17.024;2022-12-18T05:53:19;-3.80;99.90
35043;DHT22;21230;51.170;17.024;2022-12-18T05:55:46;-3.70;99.90
35043;DHT22;21230;51.170;17.024;2022-12-18T05:58:13;-3.70;99.90
35043;DHT22;21230;51.170;17.024;2022-12-18T06:00:42;-3.80;99.90
35043;DHT22;21230;51.170;17.024;2022-12-18T06:03:08;-3.80;99.90
35043;DHT22;21230;51.170;17.024;2022-12-18T06:05:42;-3.90;99.90
35043;DHT22;21230;51.170;17.024;2022-12-18T06:08:08;-3.80;99.90
35043;DHT22;21230;51.170;17.024;2022-12-18T06:10:34;-3.70;99.90
35043;DHT22;21230;51.170;17.024;2022-12-18T06:13:00;-3.60;99.90
35043;DHT22;21230;51.170;17.024;2022-12-18T06:15:27;-3.60;99.90
35043;DHT22;21230;51.170;17.024;2022-12-18T06:17:53;-3.60;99.90
35043;DHT22;21230;51.170;17.024;2022-12-18T06:20:19;-3.80;99.90
35043;DHT22;21230;51.170;17.024;2022-12-18T06:22:45;-3.80;99.90
35043;DHT22;21230;51.170;17.024;2022-12-18T06:25:12;-3.70;99.90
35043;DHT22;21230;51.170;17.024;2022-12-18T06:27:38;-3.80;99.90
35043;DHT22;21230;51.170;17.024;2022-12-18T06:30:08;-3.80;99.90
35043;DHT22;21230;51.170;17.024;2022-12-18T06:32:34;-3.80;99.90
35043;DHT22;21230;51.170;17.024;2022-12-18T06:35:00;-3.70;99.90
35043;DHT22;21230;51.170;17.024;2022-12-18T06:37:26;-3.70;99.90
35043;DHT22;21230;51.170;17.024;2022-12-18T06:39:55;-3.70;99.90
35043;DHT22;21230;51.170;17.024;2022-12-18T06:42:22;-3.80;99.90
35043;DHT22;21230;51.170;17.024;2022-12-18T06:44:50;-3.90;99.90
35043;DHT22;21230;51.170;17.024;2022-12-18T06:47:19;-3.80;99.90
35043;DHT22;21230;51.170;17.024;2022-12-18T06:49:45;-3.80;99.90
35043;DHT22;21230;51.170;17.024;2022-12-18T06:52:11;-3.80;99.90
35043;DHT22;21230;51.170;17.024;2022-12-18T06:54:37;-3.80;99.90
35043;DHT22;21230;51.170;17.024;2022-12-18T06:57:03;-3.80;99.90
35043;DHT22;21230;51.170;17.024;2022-12-18T06:59:28;-3.80;99.90
35043;DHT22;21230;51.170;17.024;2022-12-18T07:01:54;-3.70;99.90
35043;DHT22;21230;51.170;17.024;2022-12-18T07:04:20;-3.60;99.90
35043;DHT22;21230;51.170;17.024;2022-12-18T07:06:46;-3.50;99.90
35043;DHT22;21230;51.170;17.024;2022-12-18T07:09:12;-3.50;99.90
35043;DHT22;21230;51.170;17.024;2022-12-18T07:11:38;-3.50;99.90
35043;DHT22;21230;51.170;17.024;2022-12-18T07:14:03;-3.50;99.90
35043;DHT22;21230;51.170;17.024;2022-12-18T07:16:29;-3.60;99.90
35043;DHT22;21230;51.170;17.024;2022-12-18T07:18:55;-3.70;99.90
35043;DHT22;21230;51.170;17.024;2022-12-18T07:21:23;-3.70;99.90
35043;DHT22;21230;51.170;17.024;2022-12-18T07:23:50;-3.60;99.90
35043;DHT22;21230;51.170;17.024;2022-12-18T07:26:18;-3.70;99.90
35043;DHT22;21230;51.170;17.024;2022-12-18T07:28:44;-3.70;99.90
35043;DHT22;21230;51.170;17.024;2022-12-18T07:31:13;-3.80;99.90
35043;DHT22;21230;51.170;17.024;2022-12-18T07:33:40;-3.90;99.90
35043;DHT22;21230;51.170;17.024;2022-12-18T07:36:08;-3.90;99.90
35043;DHT22;21230;51.170;17.024;2022-12-18T07:38:35;-3.90;99.90
35043;DHT22;21230;51.170;17.024;2022-12-18T07:41:09;-3.80;99.90
35043;DHT22;21230;51.170;17.024;2022-12-18T07:43:36;-3.80;99.90
35043;DHT22;21230;51.170;17.024;2022-12-18T07:46:02;-3.60;99.90
35043;DHT22;21230;51.170;17.024;2022-12-18T07:48:29;-3.60;99.90
35043;DHT22;21230;51.170;17.024;2022-12-18T07:51:04;-3.50;99.90
35043;DHT22;21230;51.170;17.024;2022-12-18T07:53:31;-3.60;99.90
35043;DHT22;21230;51.170;17.024;2022-12-18T07:56:15;-3.50;99.90
35043;DHT22;21230;51.170;17.024;2022-12-18T07:58:41;-3.60;99.90
35043;DHT22;21230;51.170;17.024;2022-12-18T08:01:09;-3.60;99.90
35043;DHT22;21230;51.170;17.024;2022-12-18T08:03:36;-3.50;99.90
35043;DHT22;21230;51.170;17.024;2022-12-18T08:06:04;-3.60;99.90
35043;DHT22;21230;51.170;17.024;2022-12-18T08:08:34;-3.60;99.90
35043;DHT22;21230;51.170;17.024;2022-12-18T08:11:00;-3.50;99.90
35043;DHT22;21230;51.170;17.024;2022-12-18T08:13:26;-3.40;99.90
35043;DHT22;21230;51.170;17.024;2022-12-18T08:16:01;-3.40;99.90
35043;DHT22;21230;51.170;17.024;2022-12-18T08:18:27;-3.40;99.90
35043;DHT22;21230;51.170;17.024;2022-12-18T08:20:54;-3.30;99.90
35043;DHT22;21230;51.170;17.024;2022-12-18T08:23:24;-3.30;99.90
35043;DHT22;21230;51.170;17.024;2022-12-18T08:25:50;-3.20;99.90
35043;DHT22;21230;51.170;17.024;2022-12-18T08:28:17;-3.10;99.90
35043;DHT22;21230;51.170;17.024;2022-12-18T08:30:42;-3.20;99.90
35043;DHT22;21230;51.170;17.024;2022-12-18T08:33:09;-3.40;99.90
35043;DHT22;21230;51.170;17.024;2022-12-18T08:35:36;-3.50;99.90
35043;DHT22;21230;51.170;17.024;2022-12-18T08:38:02;-3.40;99.90
35043;DHT22;21230;51.170;17.024;2022-12-18T08:40:28;-3.40;99.90
35043;DHT22;21230;51.170;17.024;2022-12-18T08:42:55;-3.50;99.90
35043;DHT22;21230;51.170;17.024;2022-12-18T08:45:39;-3.40;99.90
35043;DHT22;21230;51.170;17.024;2022-12-18T08:48:05;-3.50;99.90
35043;DHT22;21230;51.170;17.024;2022-12-18T08:50:32;-3.40;99.90
35043;DHT22;21230;51.170;17.024;2022-12-18T08:52:57;-3.30;99.90
35043;DHT22;21230;51.170;17.024;2022-12-18T08:55:29;-3.10;99.90
35043;DHT22;21230;51.170;17.024;2022-12-18T09:01:04;-3.20;99.90
35043;DHT22;21230;51.170;17.024;2022-12-18T09:03:34;-3.30;99.90
35043;DHT22;21230;51.170;17.024;2022-12-18T09:06:04;-3.20;99.90
35043;DHT22;21230;51.170;17.024;2022-12-18T09:08:32;-3.10;99.90
35043;DHT22;21230;51.170;17.024;2022-12-18T09:11:00;-3.00;99.90
35043;DHT22;21230;51.170;17.024;2022-12-18T09:13:25;-2.90;99.90
35043;DHT22;21230;51.170;17.024;2022-12-18T09:15:52;-2.90;99.90
35043;DHT22;21230;51.170;17.024;2022-12-18T09:18:20;-3.00;99.90
35043;DHT22;21230;51.170;17.024;2022-12-18T09:20:47;-3.10;99.90
35043;DHT22;21230;51.170;17.024;2022-12-18T09:23:13;-3.20;99.90
35043;DHT22;21230;51.170;17.024;2022-12-18T09:25:40;-3.10;99.90
35043;DHT22;21230;51.170;17.024;2022-12-18T09:28:18;-3.10;99.90
35043;DHT22;21230;51.170;17.024;2022-12-18T09:30:49;-3.10;99.90
35043;DHT22;21230;51.170;17.024;2022-12-18T09:33:16;-2.90;99.90
35043;DHT22;21230;51.170;17.024;2022-12-18T09:35:43;-2.90;99.90
35043;DHT22;21230;51.170;17.024;2022-12-18T09:38:17;-2.90;99.90
35043;DHT22;21230;51.170;17.024;2022-12-18T09:40:52;-2.80;99.90
35043;DHT22;21230;51.170;17.024;2022-12-18T09:43:26;-2.90;99.90
35043;DHT22;21230;51.170;17.024;2022-12-18T09:45:57;-3.10;99.90
35043;DHT22;21230;51.170;17.024;2022-12-18T09:48:34;-3.00;99.90
35043;DHT22;21230;51.170;17.024;2022-12-18T09:51:06;-2.90;99.90
35043;DHT22;21230;51.170;17.024;2022-12-18T09:53:38;-2.90;99.90
35043;DHT22;21230;51.170;17.024;2022-12-18T09:56:06;-3.00;99.90
35043;DHT22;21230;51.170;17.024;2022-12-18T09:58:41;-3.10;99.90
35043;DHT22;21230;51.170;17.024;2022-12-18T10:01:23;-3.20;99.90
35043;DHT22;21230;51.170;17.024;2022-12-18T10:03:50;-3.10;99.90
35043;DHT22;21230;51.170;17.024;2022-12-18T10:07:06;-3.20;99.90
35043;DHT22;21230;51.170;17.024;2022-12-18T10:09:44;-3.00;99.90
35043;DHT22;21230;51.170;17.024;2022-12-18T10:12:17;-3.00;99.90
35043;DHT22;21230;51.170;17.024;2022-12-18T10:14:53;-3.10;99.90
35043;DHT22;21230;51.170;17.024;2022-12-18T10:23:04;-2.70;99.90
35043;DHT22;21230;51.170;17.024;2022-12-18T10:26:12;-2.80;99.90
35043;DHT22;21230;51.170;17.024;2022-12-18T10:28:40;-2.80;99.90
35043;DHT22;21230;51.170;17.024;2022-12-18T10:31:26;-2.80;99.90
35043;DHT22;21230;51.170;17.024;2022-12-18T10:33:55;-2.80;99.90
35043;DHT22;21230;51.170;17.024;2022-12-18T10:36:24;-2.80;99.90
35043;DHT22;21230;51.170;17.024;2022-12-18T10:38:50;-2.80;99.90
35043;DHT22;21230;51.170;17.024;2022-12-18T10:43:46;-2.70;99.90
35043;DHT22;21230;51.170;17.024;2022-12-18T10:46:20;-2.70;99.90
35043;DHT22;21230;51.170;17.024;2022-12-18T10:48:53;-2.70;99.90
35043;DHT22;21230;51.170;17.024;2022-12-18T10:51:30;-2.60;99.90
35043;DHT22;21230;51.170;17.024;2022-12-18T10:54:27;-2.50;99.90
35043;DHT22;21230;51.170;17.024;2022-12-18T10:57:20;-2.60;99.90
35043;DHT22;21230;51.170;17.024;2022-12-18T10:59:57;-2.50;99.90
35043;DHT22;21230;51.170;17.024;2022-12-18T11:02:35;-2.60;99.90
35043;DHT22;21230;51.170;17.024;2022-12-18T11:05:02;-2.60;99.90
35043;DHT22;21230;51.170;17.024;2022-12-18T11:07:48;-2.60;99.90
35043;DHT22;21230;51.170;17.024;2022-12-18T11:10:30;-2.70;99.90
35043;DHT22;21230;51.170;17.024;2022-12-18T11:15:43;-2.90;99.90
35043;DHT22;21230;51.170;17.024;2022-12-18T11:18:39;-2.90;99.90
35043;DHT22;21230;51.170;17.024;2022-12-18T11:21:11;-2.80;99.90
35043;DHT22;21230;51.170;17.024;2022-12-18T11:23:50;-2.90;99.90
35043;DHT22;21230;51.170;17.024;2022-12-18T11:26:19;-2.90;99.90
35043;DHT22;21230;51.170;17.024;2022-12-18T11:29:17;-2.70;99.90
35043;DHT22;21230;51.170;17.024;2022-12-18T11:31:42;-2.60;99.90
35043;DHT22;21230;51.170;17.024;2022-12-18T11:34:26;-2.60;99.90
35043;DHT22;21230;51.170;17.024;2022-12-18T11:36:54;-2.50;99.90
35043;DHT22;21230;51.170;17.024;2022-12-18T11:39:36;-2.50;99.90
35043;DHT22;21230;51.170;17.024;2022-12-18T11:42:21;-2.60;99.90
35043;DHT22;21230;51.170;17.024;2022-12-18T11:45:28;-2.60;99.90
35043;DHT22;21230;51.170;17.024;2022-12-18T11:48:22;-2.60;99.90
35043;DHT22;21230;51.170;17.024;2022-12-18T11:50:57;-2.60;99.90
35043;DHT22;21230;51.170;17.024;2022-12-18T11:53:26;-2.60;99.90
35043;DHT22;21230;51.170;17.024;2022-12-18T12:07:38;-2.60;99.90
35043;DHT22;21230;51.170;17.024;2022-12-18T12:18:29;-2.90;99.90
35043;DHT22;21230;51.170;17.024;2022-12-18T12:24:07;-2.80;99.90
35043;DHT22;21230;51.170;17.024;2022-12-18T12:26:38;-2.70;99.90
35043;DHT22;21230;51.170;17.024;2022-12-18T12:37:37;-2.80;99.90
35043;DHT22;21230;51.170;17.024;2022-12-18T12:40:05;-2.90;99.90
35043;DHT22;21230;51.170;17.024;2022-12-18T12:42:55;-2.90;99.90
35043;DHT22;21230;51.170;17.024;2022-12-18T12:45:55;-3.00;99.90
35043;DHT22;21230;51.170;17.024;2022-12-18T12:48:42;-3.00;99.90
35043;DHT22;21230;51.170;17.024;2022-12-18T12:51:16;-3.00;99.90
35043;DHT22;21230;51.170;17.024;2022-12-18T12:53:47;-3.10;99.90
35043;DHT22;21230;51.170;17.024;2022-12-18T12:56:17;-3.10;99.90
35043;DHT22;21230;51.170;17.024;2022-12-18T13:01:52;-3.00;99.90
35043;DHT22;21230;51.170;17.024;2022-12-18T13:07:12;-3.10;99.90
35043;DHT22;21230;51.170;17.024;2022-12-18T13:10:37;-2.90;99.90
35043;DHT22;21230;51.170;17.024;2022-12-18T13:12:59;-2.90;99.90
35043;DHT22;21230;51.170;17.024;2022-12-18T13:15:33;-2.70;99.90
35043;DHT22;21230;51.170;17.024;2022-12-18T13:18:23;-2.70;99.90
35043;DHT22;21230;51.170;17.024;2022-12-18T13:31:57;-2.90;99.90
35043;DHT22;21230;51.170;17.024;2022-12-18T13:34:29;-3.10;99.90
35043;DHT22;21230;51.170;17.024;2022-12-18T13:40:00;-3.30;99.90
35043;DHT22;21230;51.170;17.024;2022-12-18T13:45:38;-3.40;99.90
35043;DHT22;21230;51.170;17.024;2022-12-18T13:48:05;-3.50;99.90
35043;DHT22;21230;51.170;17.024;2022-12-18T13:50:33;-3.40;99.90
35043;DHT22;21230;51.170;17.024;2022-12-18T13:52:59;-3.50;99.90
35043;DHT22;21230;51.170;17.024;2022-12-18T13:55:25;-3.40;99.90
35043;DHT22;21230;51.170;17.024;2022-12-18T13:58:03;-3.50;99.90
35043;DHT22;21230;51.170;17.024;2022-12-18T14:00:30;-3.50;99.90
35043;DHT22;21230;51.170;17.024;2022-12-18T14:02:57;-3.40;99.90
35043;DHT22;21230;51.170;17.024;2022-12-18T14:05:30;-3.40;99.90
35043;DHT22;21230;51.170;17.024;2022-12-18T14:08:05;-3.40;99.90
35043;DHT22;21230;51.170;17.024;2022-12-18T14:10:32;-3.40;99.90
35043;DHT22;21230;51.170;17.024;2022-12-18T14:13:05;-3.40;99.90
35043;DHT22;21230;51.170;17.024;2022-12-18T14:15:46;-3.50;99.90
35043;DHT22;21230;51.170;17.024;2022-12-18T14:20:44;-3.70;99.90
35043;DHT22;21230;51.170;17.024;2022-12-18T14:23:42;-3.60;99.90
35043;DHT22;21230;51.170;17.024;2022-12-18T14:26:27;-3.60;99.90
35043;DHT22;21230;51.170;17.024;2022-12-18T14:28:58;-3.60;99.90
35043;DHT22;21230;51.170;17.024;2022-12-18T14:31:28;-3.70;99.90
35043;DHT22;21230;51.170;17.024;2022-12-18T14:33:55;-3.70;99.90
35043;DHT22;21230;51.170;17.024;2022-12-18T14:36:24;-3.80;99.90
35043;DHT22;21230;51.170;17.024;2022-12-18T14:38:52;-3.80;99.90
35043;DHT22;21230;51.170;17.024;2022-12-18T14:41:20;-3.80;99.90
35043;DHT22;21230;51.170;17.024;2022-12-18T14:43:48;-3.70;99.90
35043;DHT22;21230;51.170;17.024;2022-12-18T14:46:44;-3.80;99.90
35043;DHT22;21230;51.170;17.024;2022-12-18T14:49:27;-3.90;99.90
35043;DHT22;21230;51.170;17.024;2022-12-18T14:51:56;-3.90;99.90
35043;DHT22;21230;51.170;17.024;2022-12-18T14:54:24;-3.90;99.90
35043;DHT22;21230;51.170;17.024;2022-12-18T14:57:20;-3.90;99.90
35043;DHT22;21230;51.170;17.024;2022-12-18T14:59:47;-3.90;99.90
35043;DHT22;21230;51.170;17.024;2022-12-18T15:02:23;-3.90;99.90
35043;DHT22;21230;51.170;17.024;2022-12-18T15:05:01;-3.90;99.90
35043;DHT22;21230;51.170;17.024;2022-12-18T15:07:49;-3.90;99.90
35043;DHT22;21230;51.170;17.024;2022-12-18T15:10:21;-4.00;99.90
35043;DHT22;21230;51.170;17.024;2022-12-18T15:12:49;-4.00;99.90
35043;DHT22;21230;51.170;17.024;2022-12-18T15:20:53;-3.90;99.90
35043;DHT22;21230;51.170;17.024;2022-12-18T15:25:59;-3.80;99.90
35043;DHT22;21230;51.170;17.024;2022-12-18T15:28:37;-3.90;99.90
35043;DHT22;21230;51.170;17.024;2022-12-18T15:33:36;-4.00;99.90
35043;DHT22;21230;51.170;17.024;2022-12-18T15:36:04;-4.10;99.90
35043;DHT22;21230;51.170;17.024;2022-12-18T15:38:31;-4.20;99.90
35043;DHT22;21230;51.170;17.024;2022-12-18T15:41:00;-4.20;99.90
35043;DHT22;21230;51.170;17.024;2022-12-18T15:43:29;-4.30;99.90
35043;DHT22;21230;51.170;17.024;2022-12-18T15:46:13;-4.40;99.90
35043;DHT22;21230;51.170;17.024;2022-12-18T15:48:50;-4.30;99.90
35043;DHT22;21230;51.170;17.024;2022-12-18T15:51:42;-4.20;99.90
35043;DHT22;21230;51.170;17.024;2022-12-18T15:54:13;-4.20;99.90
35043;DHT22;21230;51.170;17.024;2022-12-18T15:56:41;-4.20;99.90
35043;DHT22;21230;51.170;17.024;2022-12-18T15:59:26;-4.30;99.90
35043;DHT22;21230;51.170;17.024;2022-12-18T16:01:53;-4.30;99.90
35043;DHT22;21230;51.170;17.024;2022-12-18T16:04:20;-4.20;99.90
35043;DHT22;21230;51.170;17.024;2022-12-18T16:06:47;-4.10;99.90
35043;DHT22;21230;51.170;17.024;2022-12-18T16:09:13;-4.10;99.90
35043;DHT22;21230;51.170;17.024;2022-12-18T16:11:42;-4.10;99.90
35043;DHT22;21230;51.170;17.024;2022-12-18T16:14:26;-4.00;99.90
35043;DHT22;21230;51.170;17.024;2022-12-18T16:17:03;-4.10;99.90
35043;DHT22;21230;51.170;17.024;2022-12-18T16:19:33;-4.10;99.90
35043;DHT22;21230;51.170;17.024;2022-12-18T16:22:01;-4.20;99.90
35043;DHT22;21230;51.170;17.024;2022-12-18T16:24:31;-4.30;99.90
35043;DHT22;21230;51.170;17.024;2022-12-18T16:26:59;-4.30;99.90
35043;DHT22;21230;51.170;17.024;2022-12-18T16:29:27;-4.30;99.90
35043;DHT22;21230;51.170;17.024;2022-12-18T16:31:58;-4.30;99.90
35043;DHT22;21230;51.170;17.024;2022-12-18T16:34:29;-4.20;99.90
35043;DHT22;21230;51.170;17.024;2022-12-18T16:36:57;-4.30;99.90
35043;DHT22;21230;51.170;17.024;2022-12-18T16:39:25;-4.30;99.90
35043;DHT22;21230;51.170;17.024;2022-12-18T16:41:51;-4.20;99.90
35043;DHT22;21230;51.170;17.024;2022-12-18T16:44:19;-4.20;99.90
35043;DHT22;21230;51.170;17.024;2022-12-18T16:46:46;-4.30;99.90
35043;DHT22;21230;51.170;17.024;2022-12-18T16:49:14;-4.30;99.90
35043;DHT22;21230;51.170;17.024;2022-12-18T16:51:41;-4.30;99.90
35043;DHT22;21230;51.170;17.024;2022-12-18T16:54:09;-4.30;99.90
35043;DHT22;21230;51.170;17.024;2022-12-18T16:56:35;-4.40;99.90
35043;DHT22;21230;51.170;17.024;2022-12-18T16:59:03;-4.40;99.90
35043;DHT22;21230;51.170;17.024;2022-12-18T17:01:30;-4.40;99.90
35043;DHT22;21230;51.170;17.024;2022-12-18T17:04:05;-4.60;99.90
35043;DHT22;21230;51.170;17.024;2022-12-18T17:06:33;-4.60;99.90
35043;DHT22;21230;51.170;17.024;2022-12-18T17:09:03;-4.80;99.90
35043;DHT22;21230;51.170;17.024;2022-12-18T17:11:31;-4.80;99.90
35043;DHT22;21230;51.170;17.024;2022-12-18T17:13:58;-4.80;99.90
35043;DHT22;21230;51.170;17.024;2022-12-18T17:16:25;-4.90;99.90
35043;DHT22;21230;51.170;17.024;2022-12-18T17:18:54;-4.90;99.90
35043;DHT22;21230;51.170;17.024;2022-12-18T17:21:21;-4.80;99.90
35043;DHT22;21230;51.170;17.024;2022-12-18T17:23:47;-4.90;99.90
35043;DHT22;21230;51.170;17.024;2022-12-18T17:26:13;-4.90;99.90
35043;DHT22;21230;51.170;17.024;2022-12-18T17:28:42;-4.90;99.90
35043;DHT22;21230;51.170;17.024;2022-12-18T17:31:16;-4.90;99.90
35043;DHT22;21230;51.170;17.024;2022-12-18T17:33:43;-5.00;99.90
35043;DHT22;21230;51.170;17.024;2022-12-18T17:36:10;-5.10;99.90
35043;DHT22;21230;51.170;17.024;2022-12-18T17:38:37;-5.20;99.90
35043;DHT22;21230;51.170;17.024;2022-12-18T17:41:06;-5.20;99.90
35043;DHT22;21230;51.170;17.024;2022-12-18T17:43:33;-5.20;99.90